createdAt,value
2022-08-17T00:02:25.896Z,99849.94
2022-08-17T00:07:29.441Z,99850.41
2022-08-17T00:12:43.155Z,99856.22
2022-08-17T00:17:49.947Z,99855.66
2022-08-17T00:23:03.565Z,99850.56
2022-08-17T00:28:07.596Z,99858.53
2022-08-17T00:33:16.232Z,99849.47
2022-08-17T00:38:20.015Z,99844.53
2022-08-17T00:43:30.769Z,99852.31
2022-08-17T00:48:35.800Z,99846.44
2022-08-17T00:53:43.333Z,99835.53
2022-08-17T00:58:46.181Z,99839.69
2022-08-17T01:03:51.901Z,99846.31
2022-08-17T01:08:57.790Z,99836.47
2022-08-17T01:14:00.778Z,99833.69
2022-08-17T01:19:08.569Z,99839.13
2022-08-17T01:24:12.806Z,99840.38
2022-08-17T01:29:16.537Z,99839.31
2022-08-17T01:34:20.590Z,99849.06
2022-08-17T01:39:32.967Z,99849.09
2022-08-17T01:44:36.242Z,99855.78
2022-08-17T01:49:41.323Z,99854.06
2022-08-17T01:54:48.616Z,99849.97
2022-08-17T01:59:51.385Z,99857.38
2022-08-17T02:04:54.206Z,99849.97
2022-08-17T02:09:58.585Z,99855.19
2022-08-17T02:15:02.718Z,99852.19
2022-08-17T02:20:07.373Z,99842.78
2022-08-17T02:25:14.207Z,99839.81
2022-08-17T02:31:00.252Z,99830.97
2022-08-17T02:35:40.435Z,99845.34
2022-08-17T02:40:44.627Z,99840.03
2022-08-17T02:45:48.037Z,99841.44
2022-08-17T02:50:50.973Z,99845.22
2022-08-17T02:55:55.155Z,99839.66
2022-08-17T03:00:57.987Z,99833.38
2022-08-17T03:06:01.966Z,99841.97
2022-08-17T03:11:06.413Z,99836.13
2022-08-17T03:16:09.793Z,99840.72
2022-08-17T03:21:12.617Z,99842.03
2022-08-17T03:26:16.802Z,99837.31
2022-08-17T03:31:21.442Z,99839.81
2022-08-17T03:36:24.308Z,99842.34
2022-08-17T03:41:28.478Z,99840.28
2022-08-17T03:46:48.791Z,99837.44
2022-08-17T03:52:09.102Z,99832.28
2022-08-17T03:57:14.057Z,99829.91
2022-08-17T04:02:20.239Z,99831.19
2022-08-17T04:07:27.466Z,99843.31
2022-08-17T04:12:44.682Z,99830.94
2022-08-17T04:17:47.684Z,99847.66
2022-08-17T04:22:58.565Z,99849.81
2022-08-17T04:28:03.884Z,99855.31
2022-08-17T04:33:13.991Z,99851.44
2022-08-17T04:38:19.473Z,99861.28
2022-08-17T04:43:25.302Z,99865.66
2022-08-17T04:48:36.010Z,99864.09
2022-08-17T04:53:41.131Z,99862.69
2022-08-17T04:58:47.808Z,99862.47
2022-08-17T05:03:50.715Z,99876.31
2022-08-17T05:08:54.798Z,99883.78
2022-08-17T05:14:00.133Z,99887.75
2022-08-17T05:19:02.981Z,99888.34
2022-08-17T05:24:10.994Z,99897.16
2022-08-17T05:29:33.570Z,99888.53
2022-08-17T05:34:38.233Z,99892.34
2022-08-17T05:39:41.727Z,99893.53
2022-08-17T05:44:45.971Z,99900.84
2022-08-17T05:49:48.965Z,99892.31
2022-08-17T05:55:04.393Z,99903.81
2022-08-17T06:00:17.021Z,99903.47
2022-08-17T06:05:37.095Z,99901.25
2022-08-17T06:10:46.500Z,99910.09
2022-08-17T06:16:03.802Z,99895.88
2022-08-17T06:21:08.862Z,99901.16
2022-08-17T06:26:17.104Z,99897.28
2022-08-17T06:31:29.248Z,99889.38
2022-08-17T06:36:49.444Z,99892.16
2022-08-17T06:42:02.237Z,99888.38
2022-08-17T06:47:12.462Z,99892.13
2022-08-17T06:52:37.199Z,99880.50
2022-08-17T06:57:52.718Z,99872.59
2022-08-17T07:03:03.182Z,99876.09
2022-08-17T07:08:12.625Z,99884.03
2022-08-17T07:13:25.663Z,99883.16
2022-08-17T07:18:33.116Z,99875.16
2022-08-17T07:23:49.777Z,99876.78
2022-08-17T07:28:52.781Z,99878.72
2022-08-17T07:34:14.427Z,99878.91
2022-08-17T07:39:27.827Z,99892.00
2022-08-17T07:44:30.954Z,99877.91
2022-08-17T07:49:40.440Z,99892.38
2022-08-17T07:54:43.915Z,99893.31
2022-08-17T08:00:19.518Z,99889.28
2022-08-17T08:05:50.632Z,99890.00
2022-08-17T08:11:01.477Z,99895.28
2022-08-17T08:16:24.222Z,99892.41
2022-08-17T08:21:41.767Z,99884.69
2022-08-17T08:26:55.488Z,99897.69
2022-08-17T08:32:08.280Z,99896.25
2022-08-17T08:37:32.612Z,99891.00
2022-08-17T08:42:45.557Z,99887.22
2022-08-17T08:48:12.709Z,99890.53
2022-08-17T08:53:36.532Z,99891.22
2022-08-17T08:58:50.532Z,99899.44
2022-08-17T09:04:25.270Z,99885.69
2022-08-17T09:09:42.127Z,99893.38
2022-08-17T09:14:52.634Z,99886.63
2022-08-17T09:20:02.106Z,99891.34
2022-08-17T09:25:11.055Z,99888.63
2022-08-17T09:30:14.769Z,99885.31
2022-08-17T09:35:22.810Z,99874.88
2022-08-17T09:40:33.600Z,99875.19
2022-08-17T09:45:43.702Z,99871.78
2022-08-17T09:51:05.422Z,99869.84
2022-08-17T09:56:31.629Z,99869.31
2022-08-17T10:01:39.928Z,99869.22
2022-08-17T10:06:52.618Z,99859.13
2022-08-17T10:12:20.424Z,99857.75
2022-08-17T10:17:31.146Z,99853.34
2022-08-17T10:22:59.354Z,99846.66
2022-08-17T10:28:19.786Z,99842.41
2022-08-17T10:33:27.859Z,99844.41
2022-08-17T10:38:47.052Z,99841.97
2022-08-17T10:44:37.923Z,99846.63
2022-08-17T10:49:35.799Z,99841.97
2022-08-17T10:55:06.372Z,99838.09
2022-08-17T11:00:15.921Z,99833.66
2022-08-17T11:05:45.572Z,99825.91
2022-08-17T11:11:07.581Z,99824.19
2022-08-17T11:16:28.697Z,99813.78
2022-08-17T11:21:59.394Z,99818.59
2022-08-17T11:27:07.664Z,99821.09
2022-08-17T11:32:36.956Z,99830.00
2022-08-17T11:37:51.543Z,99836.69
2022-08-17T11:43:25.323Z,99839.34
2022-08-17T11:48:54.870Z,99836.56
2022-08-17T11:54:28.934Z,99833.09
2022-08-17T12:00:00.312Z,99836.56
2022-08-17T12:05:27.262Z,99840.22
2022-08-17T12:10:34.274Z,99849.72
2022-08-17T12:15:42.290Z,99854.31
2022-08-17T12:20:56.667Z,99847.03
2022-08-17T12:26:05.875Z,99835.66
2022-08-17T12:31:17.018Z,99835.13
2022-08-17T12:36:25.900Z,99840.84
2022-08-17T12:41:40.313Z,99838.50
2022-08-17T12:46:51.290Z,99826.41
2022-08-17T12:52:02.956Z,99835.44
2022-08-17T12:57:15.714Z,99826.47
2022-08-17T13:02:42.396Z,99830.38
2022-08-17T13:07:47.618Z,99822.78
2022-08-17T13:12:56.077Z,99824.22
2022-08-17T13:18:07.726Z,99824.84
2022-08-17T13:23:20.973Z,99829.16
2022-08-17T13:28:35.547Z,99821.00
2022-08-17T13:33:44.793Z,99825.31
2022-08-17T13:38:51.124Z,99820.06
2022-08-17T13:43:54.021Z,99809.69
2022-08-17T13:49:03.001Z,99808.88
2022-08-17T13:54:24.710Z,99801.84
2022-08-17T13:59:55.309Z,99804.19
2022-08-17T14:05:00.508Z,99804.25
2022-08-17T14:10:09.056Z,99796.06
2022-08-17T14:15:13.658Z,99790.84
2022-08-17T14:20:19.932Z,99790.69
2022-08-17T14:25:27.604Z,99779.00
2022-08-17T14:30:30.824Z,99782.06
2022-08-17T14:35:34.403Z,99782.63
2022-08-17T14:40:39.206Z,99777.31
2022-08-17T14:45:42.752Z,99792.19
2022-08-17T14:50:46.365Z,99778.09
2022-08-17T14:55:52.537Z,99789.56
2022-08-17T15:00:55.410Z,99796.34
2022-08-17T15:05:58.565Z,99780.50
2022-08-17T15:11:04.691Z,99785.38
2022-08-17T15:16:08.625Z,99779.25
2022-08-17T15:21:11.635Z,99776.72
2022-08-17T15:26:16.826Z,99772.34
2022-08-17T15:31:20.065Z,99766.56
2022-08-17T15:36:35.147Z,99762.44
2022-08-17T15:41:39.402Z,99753.22
2022-08-17T15:46:43.163Z,99754.34
2022-08-17T15:51:46.474Z,99744.03
2022-08-17T15:56:50.774Z,99734.66
2022-08-17T16:03:13.250Z,99730.75
2022-08-17T16:07:20.914Z,99730.59
2022-08-17T16:12:29.165Z,99725.75
2022-08-17T16:17:39.901Z,99724.38
2022-08-17T16:22:45.758Z,99718.28
2022-08-17T16:27:53.797Z,99722.81
2022-08-17T16:32:58.677Z,99710.91
2022-08-17T16:38:02.729Z,99705.97
2022-08-17T16:43:10.723Z,99708.22
2022-08-17T16:48:15.356Z,99712.13
2022-08-17T16:53:20.157Z,99720.78
2022-08-17T16:58:24.482Z,99725.50
2022-08-17T17:03:30.210Z,99729.16
2022-08-17T17:08:42.097Z,99732.91
2022-08-17T17:13:54.090Z,99744.78
2022-08-17T17:19:09.077Z,99744.06
2022-08-17T17:24:17.922Z,99748.41
2022-08-17T17:29:47.370Z,99746.38
2022-08-17T17:34:56.069Z,99736.41
2022-08-17T17:40:02.957Z,99745.53
2022-08-17T17:45:15.923Z,99754.09
2022-08-17T17:50:22.938Z,99759.47
2022-08-17T17:55:34.629Z,99755.59
2022-08-17T18:00:47.376Z,99756.44
2022-08-17T18:06:05.539Z,99760.22
2022-08-17T18:11:24.365Z,99764.72
2022-08-17T18:16:32.152Z,99764.25
2022-08-17T18:21:39.063Z,99769.63
2022-08-17T18:26:50.492Z,99771.91
2022-08-17T18:37:38.318Z,99782.59
2022-08-17T18:42:41.201Z,99780.88
2022-08-17T18:47:55.250Z,99787.00
2022-08-17T18:53:21.348Z,99793.53
2022-08-17T18:58:29.741Z,99800.31
2022-08-17T19:03:32.641Z,99812.13
2022-08-17T19:08:37.237Z,99844.41
2022-08-17T19:13:45.151Z,99825.22
2022-08-17T19:18:53.014Z,99838.41
2022-08-17T19:24:04.825Z,99843.97
2022-08-17T19:29:16.596Z,99848.88
2022-08-17T19:34:33.248Z,99847.06
2022-08-17T19:39:47.902Z,99846.19
2022-08-17T19:45:01.695Z,99848.91
2022-08-17T19:50:12.749Z,99833.81
2022-08-17T19:55:26.540Z,99842.59
2022-08-17T20:00:31.136Z,99849.34
2022-08-17T20:06:01.047Z,99857.94
2022-08-17T20:11:08.742Z,99868.13
2022-08-17T20:16:12.318Z,99878.22
2022-08-17T20:21:20.824Z,99885.00
2022-08-17T20:26:29.279Z,99891.94
2022-08-17T20:31:45.403Z,99887.72
2022-08-17T20:37:00.415Z,99897.59
2022-08-17T20:42:09.466Z,99899.31
2022-08-17T20:47:21.784Z,99891.72
2022-08-17T20:52:49.558Z,99907.06
2022-08-17T20:57:53.941Z,99904.16
2022-08-17T21:03:50.957Z,99920.13
2022-08-17T21:08:58.902Z,99921.19
2022-08-17T21:14:14.698Z,99924.47
2022-08-17T21:19:44.386Z,99931.66
2022-08-17T21:25:09.522Z,99931.50
2022-08-17T21:30:22.581Z,99928.91
2022-08-17T21:35:48.192Z,99935.44
2022-08-17T21:40:55.129Z,99941.56
2022-08-17T21:46:03.708Z,99944.94
2022-08-17T21:51:12.083Z,99948.63
2022-08-17T21:56:25.164Z,99946.56
2022-08-17T22:01:31.669Z,99949.97
2022-08-17T22:06:38.041Z,99956.50
2022-08-17T22:11:58.033Z,99963.22
2022-08-17T22:17:17.925Z,99970.38
2022-08-17T22:22:28.045Z,99980.00
2022-08-17T22:27:49.070Z,99969.47
2022-08-17T22:32:53.318Z,99993.88
2022-08-17T22:37:56.366Z,100005.19
2022-08-17T22:43:01.532Z,99992.00
2022-08-17T22:48:06.296Z,99994.50
2022-08-17T22:53:41.732Z,100006.06
2022-08-17T22:59:07.890Z,100002.78
2022-08-17T23:04:16.052Z,100008.19
2022-08-17T23:09:18.830Z,99994.50
2022-08-17T23:14:22.458Z,99995.13
2022-08-17T23:19:27.426Z,99994.34
2022-08-17T23:24:35.566Z,100000.97
2022-08-17T23:29:41.986Z,100011.53
2022-08-17T23:34:48.021Z,100013.09
2022-08-17T23:39:50.966Z,100017.06
2022-08-17T23:44:53.843Z,100005.91
2022-08-17T23:49:57.999Z,99998.81
2022-08-17T23:55:06.368Z,100006.75
